sensor_id;sensor_type;location;lat;lon;timestamp;P1;durP1;ratioP1;P2;durP2;ratioP2
18574;SDS011;9417;16.484;102.872;2023-06-01T00:01:06;18.30;;;12.57;;
18574;SDS011;9417;16.484;102.872;2023-06-01T00:03:16;18.27;;;12.98;;
18574;SDS011;9417;16.484;102.872;2023-06-01T00:05:23;18.52;;;12.95;;
18574;SDS011;9417;16.484;102.872;2023-06-01T00:07:31;17.40;;;12.65;;
18574;SDS011;9417;16.484;102.872;2023-06-01T00:09:38;16.98;;;12.38;;
18574;SDS011;9417;16.484;102.872;2023-06-01T00:11:46;15.75;;;12.05;;
18574;SDS011;9417;16.484;102.872;2023-06-01T00:13:53;14.45;;;11.95;;
18574;SDS011;9417;16.484;102.872;2023-06-01T00:16:01;15.02;;;10.80;;
18574;SDS011;9417;16.484;102.872;2023-06-01T00:18:10;18.48;;;12.45;;
18574;SDS011;9417;16.484;102.872;2023-06-01T00:20:19;14.75;;;12.35;;
18574;SDS011;9417;16.484;102.872;2023-06-01T00:22:28;15.32;;;12.30;;
18574;SDS011;9417;16.484;102.872;2023-06-01T00:24:37;14.52;;;11.30;;
18574;SDS011;9417;16.484;102.872;2023-06-01T00:26:45;16.83;;;11.50;;
18574;SDS011;9417;16.484;102.872;2023-06-01T00:28:52;17.95;;;13.60;;
18574;SDS011;9417;16.484;102.872;2023-06-01T00:31:00;16.92;;;11.70;;
18574;SDS011;9417;16.484;102.872;2023-06-01T00:33:10;18.45;;;12.77;;
18574;SDS011;9417;16.484;102.872;2023-06-01T00:35:17;14.32;;;11.45;;
18574;SDS011;9417;16.484;102.872;2023-06-01T00:37:25;16.40;;;12.82;;
18574;SDS011;9417;16.484;102.872;2023-06-01T00:39:32;14.45;;;11.57;;
18574;SDS011;9417;16.484;102.872;2023-06-01T00:41:39;15.82;;;12.40;;
18574;SDS011;9417;16.484;102.872;2023-06-01T00:43:47;17.48;;;11.65;;
18574;SDS011;9417;16.484;102.872;2023-06-01T00:45:54;13.43;;;11.65;;
18574;SDS011;9417;16.484;102.872;2023-06-01T00:48:01;14.60;;;11.70;;
18574;SDS011;9417;16.484;102.872;2023-06-01T00:50:12;17.05;;;13.32;;
18574;SDS011;9417;16.484;102.872;2023-06-01T00:52:20;21.17;;;14.05;;
18574;SDS011;9417;16.484;102.872;2023-06-01T00:54:29;14.82;;;11.88;;
18574;SDS011;9417;16.484;102.872;2023-06-01T00:56:37;15.35;;;11.82;;
18574;SDS011;9417;16.484;102.872;2023-06-01T00:58:45;15.45;;;10.63;;
18574;SDS011;9417;16.484;102.872;2023-06-01T01:00:52;12.07;;;10.30;;
18574;SDS011;9417;16.484;102.872;2023-06-01T01:03:01;12.70;;;10.10;;
18574;SDS011;9417;16.484;102.872;2023-06-01T01:05:12;22.73;;;20.50;;
18574;SDS011;9417;16.484;102.872;2023-06-01T01:07:22;13.70;;;10.55;;
18574;SDS011;9417;16.484;102.872;2023-06-01T01:09:39;12.68;;;10.40;;
18574;SDS011;9417;16.484;102.872;2023-06-01T01:11:53;15.15;;;10.38;;
18574;SDS011;9417;16.484;102.872;2023-06-01T01:14:08;14.23;;;11.02;;
18574;SDS011;9417;16.484;102.872;2023-06-01T01:16:23;12.13;;;10.02;;
18574;SDS011;9417;16.484;102.872;2023-06-01T01:18:35;15.23;;;10.15;;
18574;SDS011;9417;16.484;102.872;2023-06-01T01:20:51;14.85;;;10.35;;
18574;SDS011;9417;16.484;102.872;2023-06-01T01:23:06;15.32;;;10.00;;
18574;SDS011;9417;16.484;102.872;2023-06-01T01:28:32;13.32;;;10.15;;
18574;SDS011;9417;16.484;102.872;2023-06-01T01:30:41;15.13;;;11.02;;
18574;SDS011;9417;16.484;102.872;2023-06-01T01:32:50;14.05;;;10.40;;
18574;SDS011;9417;16.484;102.872;2023-06-01T01:34:59;13.95;;;10.27;;
18574;SDS011;9417;16.484;102.872;2023-06-01T01:37:07;15.05;;;10.63;;
18574;SDS011;9417;16.484;102.872;2023-06-01T01:39:15;12.63;;;8.75;;
18574;SDS011;9417;16.484;102.872;2023-06-01T01:41:23;11.50;;;8.52;;
18574;SDS011;9417;16.484;102.872;2023-06-01T01:43:32;11.80;;;8.68;;
18574;SDS011;9417;16.484;102.872;2023-06-01T01:45:42;13.80;;;9.30;;
18574;SDS011;9417;16.484;102.872;2023-06-01T01:47:54;12.50;;;8.80;;
18574;SDS011;9417;16.484;102.872;2023-06-01T01:50:06;11.90;;;8.45;;
18574;SDS011;9417;16.484;102.872;2023-06-01T01:52:17;10.50;;;7.95;;
18574;SDS011;9417;16.484;102.872;2023-06-01T01:54:29;12.10;;;8.55;;
18574;SDS011;9417;16.484;102.872;2023-06-01T01:56:38;10.68;;;7.55;;
18574;SDS011;9417;16.484;102.872;2023-06-01T01:58:48;12.50;;;8.55;;
18574;SDS011;9417;16.484;102.872;2023-06-01T02:00:56;8.95;;;7.28;;
18574;SDS011;9417;16.484;102.872;2023-06-01T02:03:04;9.80;;;7.50;;
18574;SDS011;9417;16.484;102.872;2023-06-01T02:05:20;11.05;;;7.95;;
18574;SDS011;9417;16.484;102.872;2023-06-01T02:07:28;13.63;;;12.23;;
18574;SDS011;9417;16.484;102.872;2023-06-01T02:09:39;9.98;;;7.95;;
18574;SDS011;9417;16.484;102.872;2023-06-01T02:11:48;8.90;;;8.00;;
18574;SDS011;9417;16.484;102.872;2023-06-01T02:13:58;11.05;;;7.85;;
18574;SDS011;9417;16.484;102.872;2023-06-01T02:16:05;11.48;;;7.80;;
18574;SDS011;9417;16.484;102.872;2023-06-01T02:18:13;10.98;;;7.78;;
18574;SDS011;9417;16.484;102.872;2023-06-01T02:20:22;9.40;;;7.53;;
18574;SDS011;9417;16.484;102.872;2023-06-01T02:22:29;9.93;;;7.50;;
18574;SDS011;9417;16.484;102.872;2023-06-01T02:24:37;10.25;;;7.70;;
18574;SDS011;9417;16.484;102.872;2023-06-01T02:26:45;10.75;;;7.80;;
18574;SDS011;9417;16.484;102.872;2023-06-01T02:28:55;10.00;;;7.70;;
18574;SDS011;9417;16.484;102.872;2023-06-01T02:31:06;9.25;;;6.85;;
18574;SDS011;9417;16.484;102.872;2023-06-01T02:33:13;8.90;;;7.78;;
18574;SDS011;9417;16.484;102.872;2023-06-01T02:35:21;9.95;;;7.50;;
18574;SDS011;9417;16.484;102.872;2023-06-01T02:37:28;11.90;;;7.28;;
18574;SDS011;9417;16.484;102.872;2023-06-01T02:39:35;8.15;;;7.32;;
18574;SDS011;9417;16.484;102.872;2023-06-01T02:41:43;8.65;;;6.97;;
18574;SDS011;9417;16.484;102.872;2023-06-01T02:43:50;9.43;;;8.15;;
18574;SDS011;9417;16.484;102.872;2023-06-01T02:46:00;9.55;;;7.05;;
18574;SDS011;9417;16.484;102.872;2023-06-01T02:48:11;12.40;;;7.30;;
18574;SDS011;9417;16.484;102.872;2023-06-01T02:50:19;8.30;;;7.25;;
18574;SDS011;9417;16.484;102.872;2023-06-01T02:52:27;9.75;;;6.70;;
18574;SDS011;9417;16.484;102.872;2023-06-01T02:54:35;11.52;;;7.28;;
18574;SDS011;9417;16.484;102.872;2023-06-01T02:57:11;9.27;;;7.07;;
18574;SDS011;9417;16.484;102.872;2023-06-01T02:59:24;7.82;;;6.65;;
18574;SDS011;9417;16.484;102.872;2023-06-01T03:03:44;11.07;;;6.78;;
18574;SDS011;9417;16.484;102.872;2023-06-01T03:05:52;8.80;;;7.07;;
18574;SDS011;9417;16.484;102.872;2023-06-01T03:08:31;11.90;;;6.88;;
18574;SDS011;9417;16.484;102.872;2023-06-01T03:10:43;10.77;;;7.40;;
18574;SDS011;9417;16.484;102.872;2023-06-01T03:12:56;8.73;;;7.25;;
18574;SDS011;9417;16.484;102.872;2023-06-01T03:15:04;11.50;;;10.40;;
18574;SDS011;9417;16.484;102.872;2023-06-01T03:17:14;11.73;;;10.50;;
18574;SDS011;9417;16.484;102.872;2023-06-01T03:19:21;12.70;;;11.50;;
18574;SDS011;9417;16.484;102.872;2023-06-01T03:21:31;11.75;;;9.48;;
18574;SDS011;9417;16.484;102.872;2023-06-01T03:23:40;8.80;;;6.88;;
18574;SDS011;9417;16.484;102.872;2023-06-01T03:25:47;9.35;;;7.22;;
18574;SDS011;9417;16.484;102.872;2023-06-01T03:27:55;8.27;;;6.88;;
18574;SDS011;9417;16.484;102.872;2023-06-01T03:30:03;9.55;;;7.10;;
18574;SDS011;9417;16.484;102.872;2023-06-01T03:32:17;8.75;;;7.80;;
18574;SDS011;9417;16.484;102.872;2023-06-01T03:34:27;7.85;;;6.97;;
18574;SDS011;9417;16.484;102.872;2023-06-01T03:36:36;7.78;;;6.97;;
18574;SDS011;9417;16.484;102.872;2023-06-01T03:38:44;8.48;;;7.15;;
18574;SDS011;9417;16.484;102.872;2023-06-01T03:40:54;9.38;;;7.45;;
18574;SDS011;9417;16.484;102.872;2023-06-01T03:43:03;9.20;;;7.35;;
18574;SDS011;9417;16.484;102.872;2023-06-01T03:45:11;10.40;;;7.75;;
18574;SDS011;9417;16.484;102.872;2023-06-01T03:47:21;10.95;;;6.78;;
18574;SDS011;9417;16.484;102.872;2023-06-01T03:49:28;8.43;;;7.63;;
18574;SDS011;9417;16.484;102.872;2023-06-01T03:51:39;8.60;;;7.20;;
18574;SDS011;9417;16.484;102.872;2023-06-01T03:53:47;8.82;;;6.63;;
18574;SDS011;9417;16.484;102.872;2023-06-01T03:55:54;10.32;;;7.63;;
18574;SDS011;9417;16.484;102.872;2023-06-01T03:58:14;9.07;;;6.97;;
18574;SDS011;9417;16.484;102.872;2023-06-01T04:00:23;8.00;;;7.18;;
18574;SDS011;9417;16.484;102.872;2023-06-01T04:02:33;9.45;;;7.20;;
18574;SDS011;9417;16.484;102.872;2023-06-01T04:04:44;8.00;;;6.70;;
18574;SDS011;9417;16.484;102.872;2023-06-01T04:06:52;10.57;;;9.45;;
18574;SDS011;9417;16.484;102.872;2023-06-01T04:09:06;11.98;;;7.65;;
18574;SDS011;9417;16.484;102.872;2023-06-01T04:11:16;7.93;;;6.75;;
18574;SDS011;9417;16.484;102.872;2023-06-01T04:13:26;11.40;;;7.95;;
18574;SDS011;9417;16.484;102.872;2023-06-01T04:15:35;10.70;;;7.18;;
18574;SDS011;9417;16.484;102.872;2023-06-01T04:17:45;7.80;;;6.53;;
18574;SDS011;9417;16.484;102.872;2023-06-01T04:19:53;9.40;;;6.88;;
18574;SDS011;9417;16.484;102.872;2023-06-01T04:22:00;9.18;;;7.13;;
18574;SDS011;9417;16.484;102.872;2023-06-01T04:24:08;8.15;;;7.00;;
18574;SDS011;9417;16.484;102.872;2023-06-01T04:26:15;11.13;;;7.50;;
18574;SDS011;9417;16.484;102.872;2023-06-01T04:28:23;11.38;;;6.75;;
18574;SDS011;9417;16.484;102.872;2023-06-01T04:30:31;7.57;;;6.70;;
18574;SDS011;9417;16.484;102.872;2023-06-01T04:32:40;8.00;;;6.90;;
18574;SDS011;9417;16.484;102.872;2023-06-01T04:34:49;7.75;;;6.95;;
18574;SDS011;9417;16.484;102.872;2023-06-01T04:36:57;9.25;;;6.70;;
18574;SDS011;9417;16.484;102.872;2023-06-01T04:39:08;10.03;;;6.70;;
18574;SDS011;9417;16.484;102.872;2023-06-01T04:41:16;7.88;;;6.90;;
18574;SDS011;9417;16.484;102.872;2023-06-01T04:43:24;7.53;;;6.65;;
18574;SDS011;9417;16.484;102.872;2023-06-01T04:45:32;10.52;;;6.65;;
18574;SDS011;9417;16.484;102.872;2023-06-01T04:47:42;10.07;;;6.50;;
18574;SDS011;9417;16.484;102.872;2023-06-01T04:49:58;7.80;;;6.60;;
18574;SDS011;9417;16.484;102.872;2023-06-01T04:52:07;7.55;;;6.80;;
18574;SDS011;9417;16.484;102.872;2023-06-01T04:54:16;7.03;;;6.25;;
18574;SDS011;9417;16.484;102.872;2023-06-01T04:56:24;6.95;;;6.25;;
18574;SDS011;9417;16.484;102.872;2023-06-01T04:58:32;7.43;;;6.72;;
18574;SDS011;9417;16.484;102.872;2023-06-01T05:00:40;8.73;;;7.22;;
18574;SDS011;9417;16.484;102.872;2023-06-01T05:02:48;7.10;;;6.38;;
18574;SDS011;9417;16.484;102.872;2023-06-01T05:04:56;8.55;;;7.15;;
18574;SDS011;9417;16.484;102.872;2023-06-01T05:07:05;7.07;;;6.22;;
18574;SDS011;9417;16.484;102.872;2023-06-01T05:09:12;6.63;;;6.00;;
18574;SDS011;9417;16.484;102.872;2023-06-01T05:11:21;7.47;;;6.68;;
18574;SDS011;9417;16.484;102.872;2023-06-01T05:13:29;7.15;;;6.45;;
18574;SDS011;9417;16.484;102.872;2023-06-01T05:15:37;7.28;;;6.47;;
18574;SDS011;9417;16.484;102.872;2023-06-01T05:17:44;7.53;;;6.82;;
18574;SDS011;9417;16.484;102.872;2023-06-01T05:19:54;8.52;;;6.60;;
18574;SDS011;9417;16.484;102.872;2023-06-01T05:22:03;7.03;;;5.95;;
18574;SDS011;9417;16.484;102.872;2023-06-01T05:24:11;7.88;;;6.30;;
18574;SDS011;9417;16.484;102.872;2023-06-01T05:26:19;6.70;;;6.10;;
18574;SDS011;9417;16.484;102.872;2023-06-01T05:28:27;10.50;;;6.75;;
18574;SDS011;9417;16.484;102.872;2023-06-01T05:30:39;7.90;;;6.78;;
18574;SDS011;9417;16.484;102.872;2023-06-01T05:32:46;8.27;;;7.40;;
18574;SDS011;9417;16.484;102.872;2023-06-01T05:34:55;7.47;;;6.68;;
18574;SDS011;9417;16.484;102.872;2023-06-01T05:37:05;7.95;;;7.03;;
18574;SDS011;9417;16.484;102.872;2023-06-01T05:39:13;7.93;;;6.68;;
18574;SDS011;9417;16.484;102.872;2023-06-01T05:41:20;8.40;;;6.18;;
18574;SDS011;9417;16.484;102.872;2023-06-01T05:43:29;7.70;;;7.00;;
18574;SDS011;9417;16.484;102.872;2023-06-01T05:45:37;8.60;;;7.65;;
18574;SDS011;9417;16.484;102.872;2023-06-01T05:47:44;10.07;;;8.63;;
18574;SDS011;9417;16.484;102.872;2023-06-01T05:49:52;8.55;;;7.57;;
18574;SDS011;9417;16.484;102.872;2023-06-01T05:52:00;9.60;;;8.60;;
18574;SDS011;9417;16.484;102.872;2023-06-01T05:54:09;10.60;;;8.40;;
18574;SDS011;9417;16.484;102.872;2023-06-01T05:56:16;8.57;;;7.70;;
18574;SDS011;9417;16.484;102.872;2023-06-01T05:58:24;8.90;;;6.72;;
18574;SDS011;9417;16.484;102.872;2023-06-01T06:00:33;8.48;;;7.13;;
18574;SDS011;9417;16.484;102.872;2023-06-01T06:02:40;8.85;;;7.75;;
18574;SDS011;9417;16.484;102.872;2023-06-01T06:04:48;9.07;;;7.32;;
18574;SDS011;9417;16.484;102.872;2023-06-01T06:06:55;12.05;;;7.85;;
18574;SDS011;9417;16.484;102.872;2023-06-01T06:09:03;9.23;;;8.13;;
18574;SDS011;9417;16.484;102.872;2023-06-01T06:11:12;11.43;;;8.80;;
18574;SDS011;9417;16.484;102.872;2023-06-01T06:13:20;9.55;;;8.50;;
18574;SDS011;9417;16.484;102.872;2023-06-01T06:15:27;10.85;;;8.27;;
18574;SDS011;9417;16.484;102.872;2023-06-01T06:17:35;10.88;;;8.68;;
18574;SDS011;9417;16.484;102.872;2023-06-01T06:19:42;10.35;;;7.97;;
18574;SDS011;9417;16.484;102.872;2023-06-01T06:21:51;8.90;;;7.70;;
18574;SDS011;9417;16.484;102.872;2023-06-01T06:23:58;9.23;;;8.27;;
18574;SDS011;9417;16.484;102.872;2023-06-01T06:26:06;9.68;;;8.68;;
18574;SDS011;9417;16.484;102.872;2023-06-01T06:28:15;10.57;;;9.32;;
18574;SDS011;9417;16.484;102.872;2023-06-01T06:30:23;9.10;;;7.40;;
18574;SDS011;9417;16.484;102.872;2023-06-01T06:32:30;9.75;;;8.73;;
18574;SDS011;9417;16.484;102.872;2023-06-01T06:34:38;8.93;;;8.13;;
18574;SDS011;9417;16.484;102.872;2023-06-01T06:36:46;10.00;;;8.45;;
18574;SDS011;9417;16.484;102.872;2023-06-01T06:38:53;10.68;;;8.15;;
18574;SDS011;9417;16.484;102.872;2023-06-01T06:41:00;9.30;;;8.35;;
18574;SDS011;9417;16.484;102.872;2023-06-01T06:43:10;8.88;;;7.90;;
18574;SDS011;9417;16.484;102.872;2023-06-01T06:45:20;9.45;;;7.82;;
18574;SDS011;9417;16.484;102.872;2023-06-01T06:47:27;10.73;;;7.63;;
18574;SDS011;9417;16.484;102.872;2023-06-01T06:49:35;9.45;;;8.27;;
18574;SDS011;9417;16.484;102.872;2023-06-01T06:51:42;8.80;;;7.90;;
18574;SDS011;9417;16.484;102.872;2023-06-01T06:53:50;9.05;;;8.00;;
18574;SDS011;9417;16.484;102.872;2023-06-01T06:55:57;8.68;;;7.85;;
18574;SDS011;9417;16.484;102.872;2023-06-01T06:58:05;10.05;;;8.45;;
18574;SDS011;9417;16.484;102.872;2023-06-01T07:00:14;8.80;;;8.00;;
18574;SDS011;9417;16.484;102.872;2023-06-01T07:02:24;9.57;;;8.68;;
18574;SDS011;9417;16.484;102.872;2023-06-01T07:04:32;9.98;;;8.15;;
18574;SDS011;9417;16.484;102.872;2023-06-01T07:06:39;8.23;;;7.25;;
18574;SDS011;9417;16.484;102.872;2023-06-01T07:08:46;11.32;;;8.05;;
18574;SDS011;9417;16.484;102.872;2023-06-01T07:10:54;10.30;;;8.48;;
18574;SDS011;9417;16.484;102.872;2023-06-01T07:13:02;9.43;;;8.52;;
18574;SDS011;9417;16.484;102.872;2023-06-01T07:15:09;9.35;;;8.32;;
18574;SDS011;9417;16.484;102.872;2023-06-01T07:17:17;10.23;;;8.50;;
18574;SDS011;9417;16.484;102.872;2023-06-01T07:19:26;8.80;;;7.82;;
18574;SDS011;9417;16.484;102.872;2023-06-01T07:21:36;9.93;;;8.68;;
18574;SDS011;9417;16.484;102.872;2023-06-01T07:23:46;13.63;;;11.38;;
18574;SDS011;9417;16.484;102.872;2023-06-01T07:25:53;11.20;;;9.25;;
18574;SDS011;9417;16.484;102.872;2023-06-01T07:28:01;9.52;;;8.10;;
18574;SDS011;9417;16.484;102.872;2023-06-01T07:30:11;9.95;;;9.05;;
18574;SDS011;9417;16.484;102.872;2023-06-01T07:32:19;9.80;;;8.77;;
18574;SDS011;9417;16.484;102.872;2023-06-01T07:34:28;10.02;;;8.77;;
18574;SDS011;9417;16.484;102.872;2023-06-01T07:36:37;12.48;;;8.90;;
18574;SDS011;9417;16.484;102.872;2023-06-01T07:38:44;11.77;;;8.80;;
18574;SDS011;9417;16.484;102.872;2023-06-01T07:40:52;10.05;;;8.70;;
18574;SDS011;9417;16.484;102.872;2023-06-01T07:42:59;9.82;;;7.75;;
18574;SDS011;9417;16.484;102.872;2023-06-01T07:45:07;9.52;;;8.32;;
18574;SDS011;9417;16.484;102.872;2023-06-01T07:47:15;9.45;;;8.55;;
18574;SDS011;9417;16.484;102.872;2023-06-01T07:49:22;8.85;;;8.02;;
18574;SDS011;9417;16.484;102.872;2023-06-01T07:51:31;10.63;;;7.85;;
18574;SDS011;9417;16.484;102.872;2023-06-01T07:53:40;10.02;;;7.55;;
18574;SDS011;9417;16.484;102.872;2023-06-01T07:55:47;8.55;;;7.85;;
18574;SDS011;9417;16.484;102.872;2023-06-01T07:57:55;9.60;;;8.20;;
18574;SDS011;9417;16.484;102.872;2023-06-01T08:00:03;8.55;;;7.20;;
18574;SDS011;9417;16.484;102.872;2023-06-01T08:02:13;8.10;;;7.40;;
18574;SDS011;9417;16.484;102.872;2023-06-01T08:04:21;9.18;;;8.32;;
18574;SDS011;9417;16.484;102.872;2023-06-01T08:06:31;8.80;;;7.30;;
18574;SDS011;9417;16.484;102.872;2023-06-01T08:08:42;8.23;;;7.05;;
18574;SDS011;9417;16.484;102.872;2023-06-01T08:10:49;9.25;;;7.72;;
18574;SDS011;9417;16.484;102.872;2023-06-01T08:12:57;13.57;;;9.55;;
18574;SDS011;9417;16.484;102.872;2023-06-01T08:15:05;9.80;;;8.80;;
18574;SDS011;9417;16.484;102.872;2023-06-01T08:17:13;10.60;;;9.25;;
18574;SDS011;9417;16.484;102.872;2023-06-01T08:19:22;10.55;;;7.93;;
18574;SDS011;9417;16.484;102.872;2023-06-01T08:21:32;7.43;;;6.68;;
18574;SDS011;9417;16.484;102.872;2023-06-01T08:23:40;7.95;;;6.53;;
18574;SDS011;9417;16.484;102.872;2023-06-01T08:25:48;11.75;;;7.60;;
18574;SDS011;9417;16.484;102.872;2023-06-01T08:27:56;8.05;;;7.25;;
18574;SDS011;9417;16.484;102.872;2023-06-01T08:30:03;7.72;;;6.88;;
18574;SDS011;9417;16.484;102.872;2023-06-01T08:32:12;7.95;;;7.00;;
18574;SDS011;9417;16.484;102.872;2023-06-01T08:34:19;7.90;;;7.10;;
18574;SDS011;9417;16.484;102.872;2023-06-01T08:36:27;7.30;;;6.57;;
18574;SDS011;9417;16.484;102.872;2023-06-01T08:38:36;8.30;;;7.22;;
18574;SDS011;9417;16.484;102.872;2023-06-01T08:40:44;9.13;;;8.23;;
18574;SDS011;9417;16.484;102.872;2023-06-01T08:42:54;8.55;;;7.68;;
18574;SDS011;9417;16.484;102.872;2023-06-01T08:45:04;9.07;;;8.23;;
18574;SDS011;9417;16.484;102.872;2023-06-01T08:47:13;8.98;;;7.53;;
18574;SDS011;9417;16.484;102.872;2023-06-01T08:49:21;8.52;;;7.72;;
18574;SDS011;9417;16.484;102.872;2023-06-01T08:51:32;7.85;;;7.07;;
18574;SDS011;9417;16.484;102.872;2023-06-01T08:53:42;6.57;;;5.90;;
18574;SDS011;9417;16.484;102.872;2023-06-01T08:55:51;6.82;;;6.22;;
18574;SDS011;9417;16.484;102.872;2023-06-01T08:57:59;7.97;;;6.75;;
18574;SDS011;9417;16.484;102.872;2023-06-01T09:00:07;7.95;;;7.25;;
18574;SDS011;9417;16.484;102.872;2023-06-01T09:02:18;7.63;;;6.93;;
18574;SDS011;9417;16.484;102.872;2023-06-01T09:04:25;8.48;;;6.88;;
18574;SDS011;9417;16.484;102.872;2023-06-01T09:06:34;7.90;;;7.07;;
18574;SDS011;9417;16.484;102.872;2023-06-01T09:08:44;7.93;;;7.13;;
18574;SDS011;9417;16.484;102.872;2023-06-01T09:10:51;8.40;;;7.10;;
18574;SDS011;9417;16.484;102.872;2023-06-01T09:12:59;7.90;;;7.22;;
18574;SDS011;9417;16.484;102.872;2023-06-01T09:15:08;7.32;;;6.63;;
18574;SDS011;9417;16.484;102.872;2023-06-01T09:17:20;8.48;;;6.97;;
18574;SDS011;9417;16.484;102.872;2023-06-01T09:19:40;7.93;;;7.20;;
18574;SDS011;9417;16.484;102.872;2023-06-01T09:21:58;7.50;;;6.70;;
18574;SDS011;9417;16.484;102.872;2023-06-01T09:24:19;7.57;;;6.88;;
18574;SDS011;9417;16.484;102.872;2023-06-01T09:26:27;10.52;;;7.53;;
18574;SDS011;9417;16.484;102.872;2023-06-01T09:28:53;9.25;;;7.93;;
18574;SDS011;9417;16.484;102.872;2023-06-01T09:31:02;8.38;;;7.68;;
18574;SDS011;9417;16.484;102.872;2023-06-01T09:33:10;8.07;;;7.05;;
18574;SDS011;9417;16.484;102.872;2023-06-01T09:37:53;9.00;;;8.07;;
18574;SDS011;9417;16.484;102.872;2023-06-01T09:40:03;9.20;;;8.27;;
18574;SDS011;9417;16.484;102.872;2023-06-01T09:44:38;8.32;;;7.60;;
18574;SDS011;9417;16.484;102.872;2023-06-01T09:46:46;7.60;;;6.90;;
18574;SDS011;9417;16.484;102.872;2023-06-01T09:49:04;7.68;;;6.95;;
18574;SDS011;9417;16.484;102.872;2023-06-01T09:51:22;8.13;;;7.40;;
18574;SDS011;9417;16.484;102.872;2023-06-01T09:53:42;7.47;;;6.70;;
18574;SDS011;9417;16.484;102.872;2023-06-01T09:55:58;7.43;;;6.72;;
18574;SDS011;9417;16.484;102.872;2023-06-01T09:58:19;7.43;;;6.28;;
18574;SDS011;9417;16.484;102.872;2023-06-01T10:00:27;7.18;;;6.53;;
18574;SDS011;9417;16.484;102.872;2023-06-01T10:02:37;6.93;;;6.22;;
18574;SDS011;9417;16.484;102.872;2023-06-01T10:04:48;8.50;;;7.63;;
18574;SDS011;9417;16.484;102.872;2023-06-01T10:06:57;16.55;;;13.52;;
18574;SDS011;9417;16.484;102.872;2023-06-01T10:09:06;21.10;;;14.52;;
18574;SDS011;9417;16.484;102.872;2023-06-01T10:11:23;16.02;;;12.00;;
18574;SDS011;9417;16.484;102.872;2023-06-01T10:13:31;14.93;;;11.98;;
18574;SDS011;9417;16.484;102.872;2023-06-01T10:15:41;15.18;;;12.93;;
18574;SDS011;9417;16.484;102.872;2023-06-01T10:17:48;15.18;;;13.07;;
18574;SDS011;9417;16.484;102.872;2023-06-01T10:19:56;14.43;;;11.77;;
18574;SDS011;9417;16.484;102.872;2023-06-01T10:22:04;17.35;;;12.88;;
18574;SDS011;9417;16.484;102.872;2023-06-01T10:24:12;20.13;;;14.75;;
18574;SDS011;9417;16.484;102.872;2023-06-01T10:26:20;22.73;;;16.90;;
18574;SDS011;9417;16.484;102.872;2023-06-01T10:28:31;23.63;;;17.13;;
18574;SDS011;9417;16.484;102.872;2023-06-01T10:30:45;15.73;;;12.13;;
18574;SDS011;9417;16.484;102.872;2023-06-01T10:33:13;12.80;;;9.65;;
18574;SDS011;9417;16.484;102.872;2023-06-01T10:38:25;8.95;;;8.05;;
18574;SDS011;9417;16.484;102.872;2023-06-01T10:40:32;11.48;;;8.43;;
18574;SDS011;9417;16.484;102.872;2023-06-01T10:42:42;12.90;;;8.43;;
18574;SDS011;9417;16.484;102.872;2023-06-01T10:44:50;12.18;;;9.43;;
18574;SDS011;9417;16.484;102.872;2023-06-01T10:46:57;13.18;;;10.05;;
18574;SDS011;9417;16.484;102.872;2023-06-01T10:49:05;12.25;;;9.50;;
18574;SDS011;9417;16.484;102.872;2023-06-01T10:51:18;13.60;;;11.50;;
18574;SDS011;9417;16.484;102.872;2023-06-01T10:53:28;15.27;;;10.48;;
18574;SDS011;9417;16.484;102.872;2023-06-01T10:55:36;13.98;;;10.50;;
18574;SDS011;9417;16.484;102.872;2023-06-01T10:57:46;12.43;;;10.05;;
18574;SDS011;9417;16.484;102.872;2023-06-01T11:02:24;12.65;;;8.57;;
18574;SDS011;9417;16.484;102.872;2023-06-01T11:04:34;9.10;;;8.15;;
18574;SDS011;9417;16.484;102.872;2023-06-01T11:06:42;10.43;;;9.15;;
18574;SDS011;9417;16.484;102.872;2023-06-01T11:08:50;10.80;;;8.32;;
18574;SDS011;9417;16.484;102.872;2023-06-01T11:11:02;12.15;;;8.77;;
18574;SDS011;9417;16.484;102.872;2023-06-01T11:13:14;12.00;;;8.82;;
18574;SDS011;9417;16.484;102.872;2023-06-01T11:15:23;10.23;;;8.75;;
18574;SDS011;9417;16.484;102.872;2023-06-01T11:17:30;13.30;;;9.48;;
18574;SDS011;9417;16.484;102.872;2023-06-01T11:19:38;13.60;;;8.93;;
18574;SDS011;9417;16.484;102.872;2023-06-01T11:21:45;11.68;;;8.80;;
18574;SDS011;9417;16.484;102.872;2023-06-01T11:23:55;10.00;;;8.18;;
18574;SDS011;9417;16.484;102.872;2023-06-01T11:26:04;10.35;;;8.68;;
18574;SDS011;9417;16.484;102.872;2023-06-01T11:28:17;9.60;;;8.05;;
18574;SDS011;9417;16.484;102.872;2023-06-01T11:30:26;10.57;;;8.05;;
18574;SDS011;9417;16.484;102.872;2023-06-01T11:32:33;9.60;;;7.65;;
18574;SDS011;9417;16.484;102.872;2023-06-01T11:34:46;9.50;;;7.63;;
18574;SDS011;9417;16.484;102.872;2023-06-01T11:36:55;9.23;;;7.57;;
18574;SDS011;9417;16.484;102.872;2023-06-01T11:39:02;10.07;;;8.82;;
18574;SDS011;9417;16.484;102.872;2023-06-01T11:41:22;10.65;;;8.98;;
18574;SDS011;9417;16.484;102.872;2023-06-01T11:43:32;13.50;;;9.52;;
18574;SDS011;9417;16.484;102.872;2023-06-01T11:45:39;15.93;;;12.52;;
18574;SDS011;9417;16.484;102.872;2023-06-01T11:47:47;13.05;;;11.35;;
18574;SDS011;9417;16.484;102.872;2023-06-01T11:49:54;13.23;;;10.98;;
18574;SDS011;9417;16.484;102.872;2023-06-01T11:52:02;12.40;;;9.57;;
18574;SDS011;9417;16.484;102.872;2023-06-01T11:54:09;12.30;;;9.75;;
18574;SDS011;9417;16.484;102.872;2023-06-01T11:56:17;16.23;;;10.48;;
18574;SDS011;9417;16.484;102.872;2023-06-01T11:58:25;12.80;;;9.63;;
18574;SDS011;9417;16.484;102.872;2023-06-01T12:00:39;12.18;;;9.85;;
18574;SDS011;9417;16.484;102.872;2023-06-01T12:02:46;13.30;;;11.15;;
18574;SDS011;9417;16.484;102.872;2023-06-01T12:04:54;14.27;;;11.25;;
18574;SDS011;9417;16.484;102.872;2023-06-01T12:07:05;12.27;;;10.85;;
18574;SDS011;9417;16.484;102.872;2023-06-01T12:09:13;13.88;;;10.35;;
18574;SDS011;9417;16.484;102.872;2023-06-01T12:11:23;14.23;;;10.65;;
18574;SDS011;9417;16.484;102.872;2023-06-01T12:13:32;14.40;;;10.95;;
18574;SDS011;9417;16.484;102.872;2023-06-01T12:15:41;18.48;;;16.73;;
18574;SDS011;9417;16.484;102.872;2023-06-01T12:17:49;11.80;;;10.57;;
18574;SDS011;9417;16.484;102.872;2023-06-01T12:19:59;14.07;;;11.05;;
18574;SDS011;9417;16.484;102.872;2023-06-01T12:22:07;15.05;;;11.70;;
18574;SDS011;9417;16.484;102.872;2023-06-01T12:24:15;13.30;;;11.18;;
18574;SDS011;9417;16.484;102.872;2023-06-01T12:26:23;12.73;;;10.98;;
18574;SDS011;9417;16.484;102.872;2023-06-01T12:28:48;12.82;;;10.68;;
18574;SDS011;9417;16.484;102.872;2023-06-01T12:31:13;14.05;;;11.25;;
18574;SDS011;9417;16.484;102.872;2023-06-01T12:33:31;14.30;;;10.63;;
18574;SDS011;9417;16.484;102.872;2023-06-01T12:35:48;14.40;;;11.20;;
18574;SDS011;9417;16.484;102.872;2023-06-01T12:38:02;16.27;;;11.38;;
18574;SDS011;9417;16.484;102.872;2023-06-01T12:40:21;15.45;;;12.43;;
18574;SDS011;9417;16.484;102.872;2023-06-01T12:42:34;14.13;;;11.40;;
18574;SDS011;9417;16.484;102.872;2023-06-01T12:44:43;16.40;;;11.35;;
18574;SDS011;9417;16.484;102.872;2023-06-01T12:46:57;13.40;;;12.00;;
18574;SDS011;9417;16.484;102.872;2023-06-01T12:49:12;19.05;;;10.98;;
18574;SDS011;9417;16.484;102.872;2023-06-01T12:51:21;14.00;;;11.63;;
18574;SDS011;9417;16.484;102.872;2023-06-01T12:53:29;13.95;;;11.30;;
18574;SDS011;9417;16.484;102.872;2023-06-01T12:55:36;13.23;;;11.57;;